createdAt,value
2022-10-26T00:01:13.744Z,12.94
2022-10-26T00:03:42.262Z,12.87
2022-10-26T00:06:10.530Z,12.86
2022-10-26T00:08:38.120Z,12.90
2022-10-26T00:11:05.772Z,12.69
2022-10-26T00:13:32.676Z,12.67
2022-10-26T00:18:27.394Z,12.70
2022-10-26T00:20:54.248Z,12.73
2022-10-26T00:23:21.203Z,12.72
2022-10-26T00:25:55.752Z,12.70
2022-10-26T00:28:22.807Z,12.77
2022-10-26T00:30:50.055Z,12.75
2022-10-26T00:33:17.375Z,12.71
2022-10-26T00:35:47.139Z,12.61
2022-10-26T00:38:13.975Z,12.55
2022-10-26T00:40:41.184Z,12.55
2022-10-26T00:43:16.727Z,12.47
2022-10-26T00:45:44.948Z,12.38
2022-10-26T00:48:23.664Z,12.53
2022-10-26T00:50:53.063Z,12.38
2022-10-26T00:53:20.685Z,12.29
2022-10-26T00:55:50.134Z,12.22
2022-10-26T00:58:18.194Z,12.21
2022-10-26T01:00:45.484Z,12.20
2022-10-26T01:03:12.459Z,12.13
2022-10-26T01:05:42.532Z,12.10
2022-10-26T01:08:09.783Z,12.14
2022-10-26T01:10:39.895Z,12.12
2022-10-26T01:13:06.892Z,12.03
2022-10-26T01:16:04.655Z,12.11
2022-10-26T01:18:34.152Z,12.07
2022-10-26T01:21:46.295Z,11.92
2022-10-26T01:24:40.445Z,11.79
2022-10-26T01:27:28.605Z,11.98
2022-10-26T01:30:18.751Z,11.98
2022-10-26T01:33:04.055Z,11.98
2022-10-26T01:35:38.809Z,12.00
2022-10-26T01:38:15.035Z,12.01
2022-10-26T01:41:01.254Z,11.98
2022-10-26T01:43:32.345Z,12.03
2022-10-26T01:45:59.375Z,11.97
2022-10-26T01:48:29.384Z,11.91
2022-10-26T01:50:58.734Z,11.88
2022-10-26T01:53:28.858Z,11.90
2022-10-26T01:55:56.574Z,11.78
2022-10-26T01:58:26.189Z,11.84
2022-10-26T02:01:42.959Z,11.85
2022-10-26T02:04:37.265Z,11.91
2022-10-26T02:07:26.164Z,11.97
2022-10-26T02:10:02.136Z,11.97
2022-10-26T02:12:53.412Z,11.99
2022-10-26T02:15:34.637Z,11.82
2022-10-26T02:18:04.036Z,11.84
2022-10-26T02:20:40.352Z,11.86
2022-10-26T02:23:08.342Z,11.75
2022-10-26T02:25:41.273Z,11.69
2022-10-26T02:28:13.366Z,11.65
2022-10-26T02:30:42.877Z,11.55
2022-10-26T02:33:13.936Z,11.56
2022-10-26T02:35:43.656Z,11.61
2022-10-26T02:38:13.065Z,11.66
2022-10-26T02:40:40.394Z,11.69
2022-10-26T02:43:12.936Z,11.55
2022-10-26T02:45:54.210Z,11.68
2022-10-26T02:48:21.906Z,11.66
2022-10-26T02:50:54.690Z,11.68
2022-10-26T02:53:49.464Z,11.63
2022-10-26T02:56:26.653Z,11.62
2022-10-26T02:59:00.161Z,11.68
2022-10-26T03:01:28.899Z,11.67
2022-10-26T03:03:59.206Z,11.67
2022-10-26T03:06:26.714Z,11.65
2022-10-26T03:08:53.812Z,11.49
2022-10-26T03:11:20.628Z,11.36
2022-10-26T03:13:47.491Z,11.26
2022-10-26T03:16:14.282Z,11.23
2022-10-26T03:18:41.107Z,11.18
2022-10-26T03:21:08.103Z,11.21
2022-10-26T03:23:35.028Z,11.20
2022-10-26T03:26:01.822Z,11.00
2022-10-26T03:28:28.672Z,11.05
2022-10-26T03:30:55.447Z,11.01
2022-10-26T03:33:25.627Z,11.05
2022-10-26T03:35:56.989Z,11.04
2022-10-26T03:38:24.224Z,10.94
2022-10-26T03:40:51.130Z,10.93
2022-10-26T03:43:18.204Z,10.88
2022-10-26T03:45:45.054Z,10.93
2022-10-26T03:48:12.074Z,10.89
2022-10-26T03:50:38.980Z,10.88
2022-10-26T03:53:06.324Z,11.01
2022-10-26T03:55:33.182Z,10.89
2022-10-26T03:58:02.722Z,11.02
2022-10-26T04:00:29.615Z,10.86
2022-10-26T04:03:00.005Z,10.84
2022-10-26T04:05:29.265Z,10.83
2022-10-26T04:08:04.869Z,10.86
2022-10-26T04:10:32.137Z,10.92
2022-10-26T04:13:02.039Z,10.88
2022-10-26T04:15:29.751Z,10.80
2022-10-26T04:18:01.659Z,10.81
2022-10-26T04:20:29.990Z,10.73
2022-10-26T04:23:05.746Z,10.73
2022-10-26T04:25:34.208Z,10.76
2022-10-26T04:28:02.873Z,10.71
2022-10-26T04:30:30.385Z,10.68
2022-10-26T04:32:57.314Z,10.60
2022-10-26T04:35:24.284Z,10.55
2022-10-26T04:37:51.224Z,10.58
2022-10-26T04:40:18.606Z,10.50
2022-10-26T04:42:47.780Z,10.54
2022-10-26T04:45:17.005Z,10.54
2022-10-26T04:47:44.233Z,10.53
2022-10-26T04:50:12.653Z,10.55
2022-10-26T04:52:40.044Z,10.48
2022-10-26T04:55:07.985Z,10.39
2022-10-26T04:57:35.674Z,10.44
2022-10-26T05:00:04.696Z,10.47
2022-10-26T05:02:31.578Z,10.48
2022-10-26T05:04:58.514Z,10.56
2022-10-26T05:07:25.471Z,10.44
2022-10-26T05:09:52.285Z,10.40
2022-10-26T05:12:19.544Z,10.36
2022-10-26T05:14:46.451Z,10.50
2022-10-26T05:17:13.361Z,10.63
2022-10-26T05:19:40.349Z,10.81
2022-10-26T05:22:07.583Z,10.94
2022-10-26T05:24:34.465Z,11.17
2022-10-26T05:27:01.333Z,11.23
2022-10-26T05:29:28.143Z,11.40
2022-10-26T05:31:55.015Z,11.60
2022-10-26T05:34:21.818Z,11.85
2022-10-26T05:36:48.790Z,12.61
2022-10-26T05:39:15.568Z,13.49
2022-10-26T05:41:42.625Z,14.03
2022-10-26T05:44:09.474Z,14.49
2022-10-26T05:46:36.320Z,15.33
2022-10-26T05:49:03.157Z,15.89
2022-10-26T05:51:30.017Z,16.52
2022-10-26T05:53:56.947Z,16.93
2022-10-26T05:56:38.495Z,17.32
2022-10-26T05:59:11.824Z,17.59
2022-10-26T06:01:54.571Z,17.58
2022-10-26T06:04:24.105Z,18.48
2022-10-26T06:06:54.937Z,19.07
2022-10-26T06:09:22.283Z,19.74
2022-10-26T06:14:17.592Z,19.76
2022-10-26T06:17:11.288Z,19.84
2022-10-26T06:19:47.617Z,20.14
2022-10-26T06:22:23.659Z,20.36
2022-10-26T06:25:15.253Z,20.69
2022-10-26T06:28:23.037Z,21.52
2022-10-26T06:30:50.437Z,22.16
2022-10-26T06:33:28.976Z,21.85
2022-10-26T06:36:13.688Z,22.92
2022-10-26T06:38:44.573Z,23.26
2022-10-26T06:41:15.808Z,23.55
2022-10-26T06:43:43.038Z,23.79
2022-10-26T06:46:46.368Z,24.08
2022-10-26T06:49:22.414Z,24.58
2022-10-26T06:52:14.386Z,24.10
2022-10-26T06:54:47.367Z,24.22
2022-10-26T06:57:16.535Z,24.43
2022-10-26T06:59:45.312Z,24.49
2022-10-26T07:02:13.228Z,24.96
2022-10-26T07:04:40.698Z,25.16
2022-10-26T07:07:09.128Z,25.63
2022-10-26T07:09:35.951Z,25.61
2022-10-26T07:12:02.930Z,25.33
2022-10-26T07:14:29.859Z,24.96
2022-10-26T07:16:57.219Z,25.03
2022-10-26T07:19:24.317Z,24.74
2022-10-26T07:21:51.157Z,24.93
2022-10-26T07:24:18.370Z,24.83
2022-10-26T07:26:45.289Z,25.23
2022-10-26T07:29:12.187Z,25.02
2022-10-26T07:31:39.788Z,24.81
2022-10-26T07:34:25.286Z,24.98
2022-10-26T07:36:52.368Z,25.42
2022-10-26T07:39:19.227Z,24.38
2022-10-26T07:41:46.467Z,25.16
2022-10-26T07:44:13.391Z,24.68
2022-10-26T07:46:40.205Z,25.24
2022-10-26T07:49:07.060Z,25.52
2022-10-26T07:51:33.845Z,25.78
2022-10-26T07:54:00.858Z,25.95
2022-10-26T07:56:28.397Z,26.17
2022-10-26T07:58:55.552Z,26.49
2022-10-26T08:01:22.942Z,26.53
2022-10-26T08:03:56.177Z,26.10
2022-10-26T08:06:23.456Z,26.61
2022-10-26T08:08:51.956Z,26.61
2022-10-26T08:11:19.323Z,26.64
2022-10-26T08:13:46.414Z,25.67
2022-10-26T08:16:13.745Z,25.52
2022-10-26T08:18:40.645Z,25.12
2022-10-26T08:21:12.275Z,25.23
2022-10-26T08:23:41.584Z,24.54
2022-10-26T08:26:11.605Z,25.03
2022-10-26T08:28:39.243Z,25.11
2022-10-26T08:31:07.349Z,24.93
2022-10-26T08:33:34.228Z,24.23
2022-10-26T08:36:06.230Z,24.76
2022-10-26T08:38:34.127Z,25.21
2022-10-26T08:41:08.284Z,24.36
2022-10-26T08:43:47.095Z,25.40
2022-10-26T08:46:17.936Z,25.89
2022-10-26T08:48:50.421Z,24.95
2022-10-26T08:51:19.610Z,25.64
2022-10-26T08:54:00.034Z,26.13
2022-10-26T08:56:50.709Z,26.52
2022-10-26T08:59:43.717Z,26.17
2022-10-26T09:02:15.355Z,26.63
2022-10-26T09:04:42.657Z,25.88
2022-10-26T09:07:46.469Z,25.82
2022-10-26T09:10:35.187Z,25.88
2022-10-26T09:13:11.846Z,26.11
2022-10-26T09:16:10.743Z,26.00
2022-10-26T09:18:49.635Z,26.86
2022-10-26T09:21:58.455Z,26.10
2022-10-26T09:24:39.207Z,25.90
2022-10-26T09:27:30.599Z,25.92
2022-10-26T09:30:04.355Z,24.88
2022-10-26T09:32:41.545Z,25.07
2022-10-26T09:35:27.960Z,25.43
2022-10-26T09:38:43.046Z,26.05
2022-10-26T09:41:12.693Z,25.71
2022-10-26T09:43:43.340Z,25.94
2022-10-26T09:46:17.432Z,25.69
2022-10-26T09:51:30.004Z,26.28
2022-10-26T09:53:59.053Z,26.41
2022-10-26T09:56:28.165Z,26.31
2022-10-26T09:59:02.236Z,26.28
2022-10-26T10:01:36.959Z,26.28
2022-10-26T10:04:22.879Z,25.65
2022-10-26T10:07:03.968Z,25.83
2022-10-26T10:09:30.842Z,25.68
2022-10-26T10:12:02.038Z,25.83
2022-10-26T10:14:34.737Z,25.77
2022-10-26T10:19:43.952Z,25.87
2022-10-26T10:22:18.754Z,25.89
2022-10-26T10:25:03.673Z,25.62
2022-10-26T10:27:31.915Z,25.50
2022-10-26T10:30:20.667Z,25.51
2022-10-26T10:33:11.291Z,25.77
2022-10-26T10:35:48.269Z,25.71
2022-10-26T10:38:21.556Z,25.90
2022-10-26T10:40:55.235Z,25.62
2022-10-26T10:43:24.145Z,25.94
2022-10-26T10:45:55.850Z,25.70
2022-10-26T10:48:29.093Z,25.85
2022-10-26T10:51:03.306Z,25.71
2022-10-26T10:53:38.527Z,25.49
2022-10-26T10:56:33.630Z,25.47
2022-10-26T10:59:33.300Z,25.60
2022-10-26T11:02:38.298Z,25.64
2022-10-26T11:05:27.151Z,25.72
2022-10-26T11:08:00.519Z,25.56
2022-10-26T11:10:34.548Z,25.78
2022-10-26T11:13:07.917Z,25.79
2022-10-26T11:15:38.556Z,25.63
2022-10-26T11:18:16.755Z,25.69
2022-10-26T11:20:51.396Z,25.40
2022-10-26T11:23:33.887Z,25.43
2022-10-26T11:26:07.705Z,25.75
2022-10-26T11:28:59.566Z,25.55
2022-10-26T11:31:35.963Z,24.99
2022-10-26T11:34:16.997Z,25.09
2022-10-26T11:36:50.457Z,25.38
2022-10-26T11:39:42.911Z,25.28
2022-10-26T11:42:21.189Z,25.24
2022-10-26T11:45:03.857Z,24.96
2022-10-26T11:47:41.026Z,25.21
2022-10-26T11:50:22.926Z,24.89
2022-10-26T11:52:55.496Z,24.76
2022-10-26T11:55:23.702Z,24.79
2022-10-26T11:57:53.657Z,24.80
2022-10-26T12:00:22.939Z,24.74
2022-10-26T12:02:58.400Z,24.68
2022-10-26T12:05:40.183Z,24.30
2022-10-26T12:08:25.522Z,24.43
2022-10-26T12:11:04.639Z,24.31
2022-10-26T12:13:40.040Z,24.02
2022-10-26T12:16:06.814Z,24.23
2022-10-26T12:18:55.602Z,23.95
2022-10-26T12:21:26.901Z,24.10
2022-10-26T12:23:59.686Z,23.91
2022-10-26T12:26:26.760Z,23.67
2022-10-26T12:29:02.438Z,23.64
2022-10-26T12:31:33.106Z,23.55
2022-10-26T12:34:00.958Z,23.43
2022-10-26T12:36:51.137Z,23.31
2022-10-26T12:39:36.420Z,23.19
2022-10-26T12:42:06.533Z,23.56
2022-10-26T12:44:41.430Z,23.59
2022-10-26T12:47:10.078Z,23.47
2022-10-26T12:50:07.801Z,23.63
2022-10-26T12:52:54.668Z,23.51
2022-10-26T12:55:37.726Z,23.55
2022-10-26T12:58:13.316Z,23.37
2022-10-26T13:01:06.964Z,23.40
2022-10-26T13:04:13.541Z,23.31
2022-10-26T13:07:12.919Z,23.39
2022-10-26T13:09:40.549Z,23.25
2022-10-26T13:12:07.741Z,23.11
2022-10-26T13:14:38.602Z,22.91
2022-10-26T13:17:07.279Z,23.03
2022-10-26T13:19:45.208Z,22.90
2022-10-26T13:22:19.949Z,22.84
2022-10-26T13:24:59.370Z,22.90
2022-10-26T13:27:41.968Z,22.84
2022-10-26T13:30:34.885Z,22.81
2022-10-26T13:33:03.517Z,22.75
2022-10-26T13:35:31.856Z,22.70
2022-10-26T13:38:02.918Z,22.58
2022-10-26T13:40:30.691Z,22.59
2022-10-26T13:43:02.618Z,22.50
2022-10-26T13:45:39.511Z,22.40
2022-10-26T13:48:24.861Z,22.39
2022-10-26T13:53:42.817Z,22.33
2022-10-26T13:56:35.434Z,22.34
2022-10-26T13:59:22.258Z,22.12
2022-10-26T14:02:06.634Z,22.06
2022-10-26T14:04:33.585Z,22.09
2022-10-26T14:07:00.396Z,22.14
2022-10-26T14:09:30.335Z,22.22
2022-10-26T14:12:02.163Z,22.12
2022-10-26T14:14:32.631Z,22.23
2022-10-26T14:17:00.303Z,22.18
2022-10-26T14:19:28.583Z,22.26
2022-10-26T14:21:56.322Z,22.03
2022-10-26T14:24:45.564Z,21.98
2022-10-26T14:27:22.044Z,21.89
2022-10-26T14:30:16.747Z,21.84
2022-10-26T14:32:37.865Z,21.73
2022-10-26T14:35:04.902Z,21.68
2022-10-26T14:37:45.602Z,21.70
2022-10-26T14:40:28.884Z,21.61
2022-10-26T14:43:00.576Z,21.54
2022-10-26T14:45:48.261Z,21.51
2022-10-26T14:48:24.114Z,21.49
2022-10-26T14:51:16.975Z,21.44
2022-10-26T14:53:56.039Z,21.37
2022-10-26T14:56:30.584Z,21.29
2022-10-26T14:58:59.138Z,21.20
2022-10-26T15:01:32.040Z,21.13
2022-10-26T15:04:05.615Z,21.02
2022-10-26T15:06:38.370Z,21.01
2022-10-26T15:09:06.983Z,20.92
2022-10-26T15:11:35.532Z,20.82
2022-10-26T15:14:03.204Z,20.69
2022-10-26T15:16:40.972Z,20.53
2022-10-26T15:19:15.843Z,20.45
2022-10-26T15:21:47.942Z,20.38
2022-10-26T15:24:30.243Z,20.22
2022-10-26T15:27:00.164Z,20.13
2022-10-26T15:29:44.637Z,19.98
2022-10-26T15:32:28.394Z,19.88
2022-10-26T15:35:20.063Z,19.82
2022-10-26T15:37:47.669Z,19.67
2022-10-26T15:40:14.905Z,19.69
2022-10-26T15:42:44.855Z,19.80
2022-10-26T15:45:21.538Z,19.53
2022-10-26T15:47:50.315Z,19.32
2022-10-26T15:50:20.253Z,19.19
2022-10-26T15:52:49.267Z,19.69
2022-10-26T15:55:17.743Z,19.93
2022-10-26T15:57:44.756Z,20.02
2022-10-26T16:00:16.863Z,19.37
2022-10-26T16:02:45.352Z,19.00
2022-10-26T16:05:17.065Z,18.70
2022-10-26T16:07:47.059Z,18.48
2022-10-26T16:10:25.485Z,18.28
2022-10-26T16:12:53.194Z,18.08
2022-10-26T16:15:27.216Z,17.97
2022-10-26T16:17:54.303Z,17.94
2022-10-26T16:20:23.676Z,17.87
2022-10-26T16:23:09.155Z,17.92
2022-10-26T16:25:45.177Z,17.83
2022-10-26T16:28:33.222Z,17.69
2022-10-26T16:31:04.963Z,17.56
2022-10-26T16:33:31.996Z,17.59
2022-10-26T16:35:59.799Z,17.55
2022-10-26T16:38:27.359Z,17.53
2022-10-26T16:41:12.328Z,17.54
2022-10-26T16:43:41.618Z,17.46
2022-10-26T16:46:11.218Z,17.41
2022-10-26T16:48:42.640Z,17.39
2022-10-26T16:51:18.019Z,17.31
2022-10-26T16:53:47.572Z,17.31
2022-10-26T16:56:17.614Z,17.32
2022-10-26T16:58:44.710Z,17.29
2022-10-26T17:01:13.282Z,17.19
2022-10-26T17:03:40.433Z,17.15
2022-10-26T17:06:08.184Z,17.09
2022-10-26T17:08:36.670Z,16.94
2022-10-26T17:11:09.836Z,16.84
2022-10-26T17:13:37.755Z,16.80
2022-10-26T17:16:28.782Z,16.79
2022-10-26T17:18:55.732Z,16.64
2022-10-26T17:21:32.165Z,16.59
2022-10-26T17:23:59.031Z,16.52
2022-10-26T17:26:25.912Z,16.47
2022-10-26T17:28:57.382Z,16.51
2022-10-26T17:31:25.803Z,16.48
2022-10-26T17:33:52.891Z,16.51
2022-10-26T17:36:21.748Z,16.35
2022-10-26T17:38:50.969Z,16.25
2022-10-26T17:41:19.461Z,16.20
2022-10-26T17:43:47.949Z,16.17
2022-10-26T17:46:20.139Z,16.09
2022-10-26T17:48:47.427Z,16.06
2022-10-26T17:51:18.997Z,15.91
2022-10-26T17:53:50.732Z,15.85
2022-10-26T17:56:23.439Z,15.87
2022-10-26T17:58:55.701Z,15.87
2022-10-26T18:01:23.314Z,15.71
2022-10-26T18:03:50.299Z,15.78
2022-10-26T18:06:20.099Z,15.72
2022-10-26T18:08:47.190Z,15.65
2022-10-26T18:11:19.090Z,15.57
2022-10-26T18:13:48.420Z,15.52
2022-10-26T18:16:17.860Z,15.65
2022-10-26T18:18:52.309Z,15.45
2022-10-26T18:21:20.632Z,15.51
2022-10-26T18:23:47.732Z,15.48
2022-10-26T18:26:17.989Z,15.55
2022-10-26T18:28:45.216Z,15.48
2022-10-26T18:31:14.847Z,15.36
2022-10-26T18:33:41.824Z,15.16
2022-10-26T18:36:14.186Z,15.08
2022-10-26T18:38:41.763Z,15.23
2022-10-26T18:41:29.222Z,15.19
2022-10-26T18:43:59.832Z,15.13
2022-10-26T18:46:33.428Z,15.08
2022-10-26T18:49:01.052Z,15.13
2022-10-26T18:51:33.199Z,15.17
2022-10-26T18:54:01.043Z,15.12
2022-10-26T18:56:27.973Z,15.10
2022-10-26T18:59:17.598Z,15.17
2022-10-26T19:01:45.745Z,15.02
2022-10-26T19:04:12.819Z,15.09
2022-10-26T19:06:45.236Z,14.97
2022-10-26T19:09:30.510Z,14.97
2022-10-26T19:12:00.075Z,14.79
2022-10-26T19:14:29.738Z,14.76
2022-10-26T19:16:56.537Z,14.81
2022-10-26T19:19:25.437Z,14.91
2022-10-26T19:21:52.312Z,14.82
2022-10-26T19:24:21.802Z,14.85
2022-10-26T19:26:50.579Z,14.67
2022-10-26T19:29:19.825Z,14.66
2022-10-26T19:31:50.475Z,14.80
2022-10-26T19:34:18.217Z,14.69
2022-10-26T19:36:47.160Z,14.62
2022-10-26T19:39:18.160Z,14.57
2022-10-26T19:41:46.150Z,14.60
2022-10-26T19:44:14.704Z,14.42
2022-10-26T19:46:43.452Z,14.45
2022-10-26T19:49:12.680Z,14.52
2022-10-26T19:51:39.757Z,14.45
2022-10-26T19:54:07.319Z,14.46
2022-10-26T19:56:36.073Z,14.21
2022-10-26T19:59:03.756Z,14.20
2022-10-26T20:01:30.627Z,14.27
2022-10-26T20:03:57.562Z,14.33
2022-10-26T20:06:24.615Z,14.30
2022-10-26T20:08:51.709Z,14.24
2022-10-26T20:11:19.837Z,14.15
2022-10-26T20:13:47.923Z,14.27
2022-10-26T20:16:16.944Z,14.21
2022-10-26T20:18:47.617Z,14.19
2022-10-26T20:21:17.219Z,14.06
2022-10-26T20:23:45.350Z,14.05
2022-10-26T20:26:18.958Z,14.06
2022-10-26T20:28:52.901Z,13.98
2022-10-26T20:31:20.043Z,13.94
2022-10-26T20:33:50.693Z,13.83
2022-10-26T20:36:17.699Z,13.85
2022-10-26T20:38:45.119Z,13.92
2022-10-26T20:41:13.313Z,13.82
2022-10-26T20:43:41.833Z,13.85
2022-10-26T20:46:22.651Z,13.67
2022-10-26T20:48:50.914Z,13.72
2022-10-26T20:51:31.674Z,13.69
2022-10-26T20:54:17.189Z,13.56
2022-10-26T20:56:45.564Z,13.54
2022-10-26T20:59:29.623Z,13.54
2022-10-26T21:01:56.513Z,13.60
2022-10-26T21:04:23.346Z,13.63
2022-10-26T21:06:50.353Z,13.86
2022-10-26T21:09:17.163Z,13.91
2022-10-26T21:11:45.583Z,13.83
2022-10-26T21:14:12.531Z,13.83
2022-10-26T21:16:39.521Z,13.91
2022-10-26T21:19:08.495Z,13.96
2022-10-26T21:21:35.335Z,14.05
2022-10-26T21:24:02.162Z,14.07
2022-10-26T21:26:29.044Z,14.11
2022-10-26T21:28:55.973Z,14.00
2022-10-26T21:31:23.774Z,14.03
2022-10-26T21:33:50.688Z,13.93
2022-10-26T21:36:18.015Z,13.96
2022-10-26T21:38:46.038Z,13.96
2022-10-26T21:41:20.934Z,13.99
2022-10-26T21:43:59.238Z,14.06
2022-10-26T21:46:37.393Z,14.01
2022-10-26T21:49:04.563Z,14.12
2022-10-26T21:51:31.374Z,14.07
2022-10-26T21:53:58.605Z,14.03
2022-10-26T21:56:25.397Z,14.00
2022-10-26T21:58:52.297Z,13.98
2022-10-26T22:01:21.731Z,13.93
2022-10-26T22:03:49.410Z,13.88
2022-10-26T22:08:47.961Z,13.74
2022-10-26T22:11:17.093Z,13.61
2022-10-26T22:13:44.763Z,13.60
2022-10-26T22:16:14.690Z,13.52
2022-10-26T22:19:03.240Z,13.57
2022-10-26T22:21:35.196Z,13.48
2022-10-26T22:24:02.352Z,13.42
2022-10-26T22:26:29.484Z,13.42
2022-10-26T22:28:57.631Z,13.36
2022-10-26T22:33:32.978Z,13.02
2022-10-26T22:36:11.005Z,12.81
2022-10-26T22:38:38.119Z,12.79
2022-10-26T22:41:13.867Z,13.07
2022-10-26T22:43:50.356Z,13.20
2022-10-26T22:46:23.128Z,13.30
2022-10-26T22:48:54.974Z,13.34
2022-10-26T22:51:23.504Z,12.95
2022-10-26T22:53:55.385Z,12.54
2022-10-26T22:56:23.675Z,12.34
2022-10-26T22:58:52.193Z,12.69
2022-10-26T23:01:22.569Z,12.87
2022-10-26T23:03:50.122Z,12.92
2022-10-26T23:06:18.525Z,13.04
2022-10-26T23:08:45.410Z,12.97
2022-10-26T23:11:17.833Z,12.96
2022-10-26T23:13:44.977Z,13.12
2022-10-26T23:16:20.695Z,13.18
2022-10-26T23:18:48.537Z,13.24
2022-10-26T23:21:16.800Z,13.27
2022-10-26T23:23:43.862Z,13.33
2022-10-26T23:26:19.209Z,13.40
2022-10-26T23:28:46.495Z,13.38
2022-10-26T23:31:19.816Z,13.49
2022-10-26T23:33:47.227Z,13.49
2022-10-26T23:36:14.101Z,13.47
2022-10-26T23:38:40.961Z,13.48
2022-10-26T23:41:10.791Z,13.49
2022-10-26T23:43:40.702Z,13.43
2022-10-26T23:46:07.834Z,13.47
2022-10-26T23:48:41.779Z,13.44
2022-10-26T23:51:08.786Z,13.46
2022-10-26T23:53:35.706Z,13.42
2022-10-26T23:56:02.744Z,13.48
2022-10-26T23:58:29.684Z,13.58
